createdAt,value
2022-10-24T00:00:55.369Z,11.15
2022-10-24T00:03:22.613Z,10.43
2022-10-24T00:05:56.281Z,11.60
2022-10-24T00:08:23.549Z,11.63
2022-10-24T00:10:57.401Z,12.23
2022-10-24T00:13:24.568Z,11.75
2022-10-24T00:15:51.809Z,11.80
2022-10-24T00:18:25.378Z,12.52
2022-10-24T00:20:52.617Z,13.32
2022-10-24T00:23:26.281Z,11.35
2022-10-24T00:25:53.508Z,14.95
2022-10-24T00:28:20.613Z,11.55
2022-10-24T00:30:58.300Z,11.93
2022-10-24T00:33:26.052Z,12.55
2022-10-24T00:36:00.349Z,14.10
2022-10-24T00:38:27.661Z,13.07
2022-10-24T00:41:01.379Z,15.60
2022-10-24T00:43:28.583Z,13.73
2022-10-24T00:45:59.580Z,13.60
2022-10-24T00:48:41.437Z,18.08
2022-10-24T00:51:14.839Z,14.40
2022-10-24T00:53:53.335Z,16.48
2022-10-24T00:56:21.994Z,15.27
2022-10-24T00:58:56.412Z,13.60
2022-10-24T01:01:25.373Z,17.20
2022-10-24T01:03:52.578Z,15.48
2022-10-24T01:06:32.323Z,15.10
2022-10-24T01:09:20.083Z,14.05
2022-10-24T01:11:53.326Z,16.40
2022-10-24T01:14:26.798Z,15.82
2022-10-24T01:17:34.320Z,15.40
2022-10-24T01:20:28.413Z,14.35
2022-10-24T01:23:02.330Z,15.13
2022-10-24T01:25:35.387Z,13.55
2022-10-24T01:28:09.340Z,14.57
2022-10-24T01:30:43.845Z,14.05
2022-10-24T01:33:23.427Z,13.10
2022-10-24T01:35:53.641Z,12.38
2022-10-24T01:38:20.722Z,14.00
2022-10-24T01:40:59.426Z,14.82
2022-10-24T01:43:28.701Z,14.10
2022-10-24T01:46:22.334Z,13.23
2022-10-24T01:48:52.073Z,13.05
2022-10-24T01:51:27.316Z,12.95
2022-10-24T01:53:55.333Z,14.63
2022-10-24T01:56:31.336Z,14.05
2022-10-24T01:59:17.004Z,14.32
2022-10-24T02:01:50.317Z,13.88
2022-10-24T02:04:17.495Z,13.73
2022-10-24T02:06:52.397Z,13.55
2022-10-24T02:09:20.236Z,12.50
2022-10-24T02:11:55.353Z,13.48
2022-10-24T02:14:28.948Z,12.82
2022-10-24T02:17:02.370Z,12.85
2022-10-24T02:19:36.716Z,12.85
2022-10-24T02:22:23.319Z,12.73
2022-10-24T02:25:04.524Z,13.32
2022-10-24T02:27:45.578Z,12.68
2022-10-24T02:30:14.828Z,12.98
2022-10-24T02:32:50.439Z,13.27
2022-10-24T02:35:19.192Z,12.77
2022-10-24T02:37:55.433Z,13.52
2022-10-24T02:40:22.877Z,13.90
2022-10-24T02:42:51.752Z,12.80
2022-10-24T02:45:27.357Z,14.10
2022-10-24T02:47:57.488Z,15.25
2022-10-24T02:50:31.335Z,14.43
2022-10-24T02:52:58.577Z,13.85
2022-10-24T02:55:32.471Z,14.63
2022-10-24T02:57:59.618Z,13.27
2022-10-24T03:00:26.891Z,12.27
2022-10-24T03:03:00.402Z,13.15
2022-10-24T03:05:27.607Z,13.60
2022-10-24T03:08:01.501Z,13.77
2022-10-24T03:10:28.668Z,12.73
2022-10-24T03:12:55.856Z,13.32
2022-10-24T03:15:29.319Z,13.88
2022-10-24T03:18:03.371Z,13.18
2022-10-24T03:20:43.450Z,12.77
2022-10-24T03:23:10.652Z,12.15
2022-10-24T03:25:44.395Z,11.82
2022-10-24T03:28:11.549Z,12.65
2022-10-24T03:30:38.655Z,10.85
2022-10-24T03:33:14.351Z,12.05
2022-10-24T03:35:41.668Z,12.63
2022-10-24T03:38:15.576Z,11.70
2022-10-24T03:40:42.913Z,12.80
2022-10-24T03:43:10.072Z,12.70
2022-10-24T03:45:44.351Z,11.30
2022-10-24T03:48:12.014Z,11.95
2022-10-24T03:50:45.580Z,12.57
2022-10-24T03:53:12.764Z,12.32
2022-10-24T03:55:39.885Z,12.98
2022-10-24T03:58:14.477Z,11.05
2022-10-24T04:00:42.771Z,11.82
2022-10-24T04:03:10.801Z,11.52
2022-10-24T04:05:44.420Z,12.63
2022-10-24T04:08:11.593Z,12.23
2022-10-24T04:10:45.388Z,12.13
2022-10-24T04:13:12.611Z,11.52
2022-10-24T04:15:39.778Z,10.75
2022-10-24T04:18:14.374Z,10.50
2022-10-24T04:20:48.346Z,10.95
2022-10-24T04:23:22.435Z,10.93
2022-10-24T04:25:49.644Z,10.63
2022-10-24T04:28:16.766Z,10.65
2022-10-24T04:30:50.374Z,10.40
2022-10-24T04:33:17.547Z,11.63
2022-10-24T04:35:54.383Z,12.05
2022-10-24T04:38:21.650Z,12.52
2022-10-24T04:40:49.738Z,11.43
2022-10-24T04:43:23.359Z,12.07
2022-10-24T04:45:50.573Z,10.50
2022-10-24T04:48:24.396Z,10.32
2022-10-24T04:50:51.969Z,11.65
2022-10-24T04:55:53.404Z,11.23
2022-10-24T04:58:21.070Z,11.13
2022-10-24T05:00:56.671Z,11.27
2022-10-24T05:03:23.993Z,10.70
2022-10-24T05:05:51.315Z,11.27
2022-10-24T05:08:25.448Z,12.00
2022-10-24T05:10:52.676Z,12.02
2022-10-24T05:13:26.444Z,11.20
2022-10-24T05:15:53.615Z,11.85
2022-10-24T05:18:33.395Z,10.43
2022-10-24T05:21:01.171Z,10.18
2022-10-24T05:23:28.861Z,10.65
2022-10-24T05:26:02.541Z,10.75
2022-10-24T05:28:29.762Z,10.23
2022-10-24T05:30:56.845Z,9.85
2022-10-24T05:33:30.531Z,11.07
2022-10-24T05:35:57.887Z,9.88
2022-10-24T05:40:58.765Z,9.52
2022-10-24T05:43:25.928Z,10.45
2022-10-24T05:45:59.502Z,10.93
2022-10-24T05:48:26.669Z,9.18
2022-10-24T05:51:04.583Z,9.35
2022-10-24T05:53:32.560Z,9.32
2022-10-24T05:55:59.723Z,8.40
2022-10-24T05:58:34.487Z,8.80
2022-10-24T06:01:01.703Z,8.88
2022-10-24T06:03:35.477Z,7.72
2022-10-24T06:06:09.188Z,7.88
2022-10-24T06:08:43.535Z,7.10
2022-10-24T06:11:11.405Z,6.45
2022-10-24T06:13:38.793Z,6.43
2022-10-24T06:16:16.651Z,5.57
2022-10-24T06:18:50.402Z,5.78
2022-10-24T06:21:31.458Z,5.10
2022-10-24T06:23:58.682Z,4.82
2022-10-24T06:26:26.267Z,5.22
2022-10-24T06:31:28.650Z,4.35
2022-10-24T06:34:02.547Z,4.10
2022-10-24T06:36:31.538Z,4.10
2022-10-24T06:38:58.910Z,3.88
2022-10-24T06:41:32.460Z,3.63
2022-10-24T06:43:59.655Z,4.30
2022-10-24T06:46:26.790Z,4.22
2022-10-24T06:49:01.462Z,4.10
2022-10-24T06:51:28.654Z,3.75
2022-10-24T06:54:02.426Z,4.07
2022-10-24T06:56:29.656Z,4.60
2022-10-24T06:58:56.901Z,3.90
2022-10-24T07:01:31.649Z,4.43
2022-10-24T07:03:58.945Z,4.47
2022-10-24T07:06:27.705Z,4.40
2022-10-24T07:09:03.415Z,4.18
2022-10-24T07:11:30.670Z,3.75
2022-10-24T07:14:08.957Z,4.13
2022-10-24T07:16:36.867Z,4.03
2022-10-24T07:19:17.532Z,4.43
2022-10-24T07:21:44.639Z,4.07
2022-10-24T07:24:19.488Z,4.32
2022-10-24T07:26:46.610Z,4.90
2022-10-24T07:29:27.535Z,5.15
2022-10-24T07:31:54.676Z,4.43
2022-10-24T07:34:21.898Z,4.30
2022-10-24T07:36:55.427Z,4.82
2022-10-24T07:39:22.594Z,4.72
2022-10-24T07:41:56.441Z,5.13
2022-10-24T07:44:23.610Z,5.75
2022-10-24T07:46:50.721Z,5.82
2022-10-24T07:49:24.459Z,5.95
2022-10-24T07:51:51.615Z,4.70
2022-10-24T07:54:25.577Z,4.93
2022-10-24T07:56:54.139Z,5.15
2022-10-24T07:59:40.609Z,4.60
2022-10-24T08:02:16.432Z,3.95
2022-10-24T08:04:43.747Z,4.40
2022-10-24T08:07:21.572Z,3.40
2022-10-24T08:09:51.187Z,4.20
2022-10-24T08:12:18.650Z,3.70
2022-10-24T08:14:52.450Z,4.13
2022-10-24T08:17:40.345Z,2.92
2022-10-24T08:20:15.790Z,3.83
2022-10-24T08:22:43.481Z,3.60
2022-10-24T08:25:11.298Z,3.60
2022-10-24T08:27:45.511Z,3.80
2022-10-24T08:30:12.905Z,3.80
2022-10-24T08:32:47.870Z,3.00
2022-10-24T08:35:18.741Z,4.10
2022-10-24T08:37:45.878Z,3.50
2022-10-24T08:40:23.421Z,3.35
2022-10-24T08:42:50.803Z,3.47
2022-10-24T08:45:29.500Z,3.75
2022-10-24T08:48:04.965Z,3.15
2022-10-24T08:50:43.534Z,2.92
2022-10-24T08:53:13.311Z,4.32
2022-10-24T08:56:02.520Z,3.97
2022-10-24T08:58:32.360Z,4.65
2022-10-24T09:01:01.104Z,4.03
2022-10-24T09:03:54.940Z,3.97
2022-10-24T09:06:31.434Z,4.25
2022-10-24T09:08:59.900Z,4.15
2022-10-24T09:11:37.366Z,4.15
2022-10-24T09:14:18.261Z,3.85
2022-10-24T09:16:53.368Z,4.00
2022-10-24T09:19:29.033Z,3.53
2022-10-24T09:22:03.539Z,4.32
2022-10-24T09:24:47.688Z,3.92
2022-10-24T09:27:32.384Z,3.45
2022-10-24T09:30:06.587Z,3.42
2022-10-24T09:32:34.550Z,4.13
2022-10-24T09:35:04.225Z,3.80
2022-10-24T09:37:48.706Z,3.78
2022-10-24T09:40:25.392Z,3.35
2022-10-24T09:42:55.518Z,3.83
2022-10-24T09:45:32.376Z,3.83
2022-10-24T09:48:01.987Z,3.70
2022-10-24T09:50:36.379Z,3.00
2022-10-24T09:53:04.370Z,3.58
2022-10-24T09:55:38.422Z,3.15
2022-10-24T09:58:05.756Z,3.17
2022-10-24T10:00:41.639Z,3.65
2022-10-24T10:03:23.861Z,3.60
2022-10-24T10:06:00.397Z,3.85
2022-10-24T10:08:32.156Z,3.67
2022-10-24T10:11:07.520Z,4.10
2022-10-24T10:13:38.687Z,3.95
2022-10-24T10:16:15.978Z,4.75
2022-10-24T10:18:51.564Z,3.92
2022-10-24T10:21:58.380Z,3.80
2022-10-24T10:24:40.482Z,4.10
2022-10-24T10:27:26.217Z,3.40
2022-10-24T10:30:18.535Z,3.53
2022-10-24T10:33:05.783Z,4.18
2022-10-24T10:35:45.463Z,3.65
2022-10-24T10:38:31.475Z,4.82
2022-10-24T10:41:05.494Z,4.70
2022-10-24T10:43:59.104Z,3.60
2022-10-24T10:46:50.536Z,4.32
2022-10-24T10:49:17.669Z,3.42
2022-10-24T10:51:55.529Z,3.70
2022-10-24T10:54:41.098Z,3.15
2022-10-24T10:57:17.642Z,3.80
2022-10-24T11:00:07.675Z,4.63
2022-10-24T11:02:48.112Z,4.05
2022-10-24T11:05:40.283Z,4.70
2022-10-24T11:08:17.210Z,3.72
2022-10-24T11:10:52.335Z,4.32
2022-10-24T11:13:30.484Z,5.30
2022-10-24T11:16:02.795Z,4.78
2022-10-24T11:18:46.648Z,6.20
2022-10-24T11:21:21.491Z,5.07
2022-10-24T11:24:03.498Z,5.82
2022-10-24T11:26:40.534Z,5.10
2022-10-24T11:29:25.560Z,5.07
2022-10-24T11:32:09.451Z,5.10
2022-10-24T11:34:41.839Z,5.65
2022-10-24T11:37:36.585Z,5.93
2022-10-24T11:40:15.882Z,6.30
2022-10-24T11:42:56.535Z,5.07
2022-10-24T11:45:27.196Z,6.18
2022-10-24T11:48:17.525Z,5.30
2022-10-24T11:50:54.045Z,6.50
2022-10-24T11:53:39.482Z,5.72
2022-10-24T11:56:27.132Z,6.25
2022-10-24T11:59:04.417Z,5.17
2022-10-24T12:01:56.877Z,5.72
2022-10-24T12:04:30.424Z,5.47
2022-10-24T12:07:00.667Z,5.55
2022-10-24T12:09:52.453Z,5.47
2022-10-24T12:12:33.357Z,6.22
2022-10-24T12:15:16.534Z,5.57
2022-10-24T12:17:55.570Z,6.75
2022-10-24T12:20:36.560Z,6.63
2022-10-24T12:23:04.255Z,7.07
2022-10-24T12:25:47.380Z,7.30
2022-10-24T12:28:29.588Z,6.72
2022-10-24T12:31:38.420Z,7.07
2022-10-24T12:34:14.503Z,7.63
2022-10-24T12:37:06.489Z,7.55
2022-10-24T12:39:35.270Z,7.25
2022-10-24T12:42:02.379Z,8.32
2022-10-24T12:44:36.551Z,7.28
2022-10-24T12:47:18.274Z,7.18
2022-10-24T12:49:52.664Z,7.10
2022-10-24T12:52:31.940Z,7.40
2022-10-24T12:55:06.616Z,7.45
2022-10-24T12:57:37.839Z,7.60
2022-10-24T13:00:05.424Z,7.38
2022-10-24T13:05:05.761Z,6.32
2022-10-24T13:07:54.791Z,7.13
2022-10-24T13:10:57.480Z,6.95
2022-10-24T13:13:34.622Z,6.13
2022-10-24T13:16:07.573Z,7.03
2022-10-24T13:18:50.559Z,6.97
2022-10-24T13:21:33.715Z,6.63
2022-10-24T13:24:18.561Z,6.45
2022-10-24T13:26:51.246Z,6.53
2022-10-24T13:29:30.599Z,6.15
2022-10-24T13:32:06.920Z,7.32
2022-10-24T13:34:59.527Z,7.32
2022-10-24T13:37:28.624Z,7.05
2022-10-24T13:40:04.531Z,7.38
2022-10-24T13:42:35.008Z,7.18
2022-10-24T13:45:12.634Z,8.27
2022-10-24T13:47:45.132Z,7.13
2022-10-24T13:50:19.590Z,7.15
2022-10-24T13:52:49.372Z,7.97
2022-10-24T13:55:29.551Z,7.50
2022-10-24T13:58:00.185Z,7.70
2022-10-24T14:00:28.831Z,7.88
2022-10-24T14:03:03.653Z,8.43
2022-10-24T14:05:37.446Z,7.72
2022-10-24T14:08:06.199Z,8.63
2022-10-24T14:10:33.348Z,7.97
2022-10-24T14:13:07.642Z,7.90
2022-10-24T14:15:34.984Z,8.05
2022-10-24T14:18:03.579Z,8.15
2022-10-24T14:20:39.624Z,8.23
2022-10-24T14:23:31.474Z,7.90
2022-10-24T14:26:02.199Z,7.68
2022-10-24T14:28:37.489Z,7.80
2022-10-24T14:31:06.076Z,8.07
2022-10-24T14:33:48.509Z,8.10
2022-10-24T14:36:15.890Z,8.13
2022-10-24T14:38:43.348Z,8.40
2022-10-24T14:41:17.555Z,8.38
2022-10-24T14:43:45.477Z,8.68
2022-10-24T14:46:24.866Z,8.10
2022-10-24T14:48:53.049Z,8.32
2022-10-24T14:51:36.240Z,8.70
2022-10-24T14:54:14.868Z,9.40
2022-10-24T14:56:48.559Z,9.15
2022-10-24T14:59:33.470Z,9.45
2022-10-24T15:02:09.713Z,9.45
2022-10-24T15:04:41.507Z,9.75
2022-10-24T15:07:21.668Z,9.50
2022-10-24T15:09:57.769Z,10.25
2022-10-24T15:12:45.963Z,9.80
2022-10-24T15:15:22.826Z,9.27
2022-10-24T15:17:58.580Z,8.55
2022-10-24T15:20:33.535Z,10.30
2022-10-24T15:23:15.796Z,10.07
2022-10-24T15:25:43.503Z,9.68
2022-10-24T15:28:37.703Z,9.90
2022-10-24T15:31:05.034Z,10.50
2022-10-24T15:33:32.320Z,9.77
2022-10-24T15:36:06.305Z,9.98
2022-10-24T15:38:36.589Z,10.60
2022-10-24T15:41:04.917Z,9.98
2022-10-24T15:43:40.182Z,11.10
2022-10-24T15:46:13.662Z,10.77
2022-10-24T15:48:40.743Z,10.95
2022-10-24T15:51:08.137Z,10.70
2022-10-24T15:53:41.650Z,10.88
2022-10-24T15:56:08.922Z,10.82
2022-10-24T15:58:42.742Z,11.38
2022-10-24T16:01:23.895Z,11.15
2022-10-24T16:03:57.706Z,12.60
2022-10-24T16:06:25.246Z,11.98
2022-10-24T16:11:25.640Z,11.32
2022-10-24T16:13:53.105Z,11.10
2022-10-24T16:16:20.506Z,12.52
2022-10-24T16:18:54.688Z,12.63
2022-10-24T16:21:34.564Z,11.15
2022-10-24T16:24:08.708Z,11.57
2022-10-24T16:26:35.932Z,12.57
2022-10-24T16:29:03.037Z,11.63
2022-10-24T16:31:36.687Z,12.45
2022-10-24T16:34:04.003Z,9.88
2022-10-24T16:36:39.594Z,11.70
2022-10-24T16:39:06.920Z,12.20
2022-10-24T16:41:34.077Z,9.85
2022-10-24T16:44:08.737Z,10.50
2022-10-24T16:46:35.894Z,10.30
2022-10-24T16:49:03.046Z,11.25
2022-10-24T16:51:41.808Z,9.82
2022-10-24T16:54:11.267Z,9.65
2022-10-24T16:56:44.802Z,8.38
2022-10-24T16:59:15.366Z,8.60
2022-10-24T17:01:43.311Z,9.32
2022-10-24T17:04:16.739Z,9.60
2022-10-24T17:06:44.031Z,10.27
2022-10-24T17:09:11.130Z,8.25
2022-10-24T17:11:45.944Z,9.10
2022-10-24T17:14:14.250Z,8.57
2022-10-24T17:16:48.713Z,9.48
2022-10-24T17:19:37.522Z,9.13
2022-10-24T17:24:39.051Z,8.98
2022-10-24T17:27:16.853Z,7.88
2022-10-24T17:29:44.303Z,9.15
2022-10-24T17:32:12.793Z,10.38
2022-10-24T17:34:47.580Z,10.15
2022-10-24T17:37:26.509Z,11.40
2022-10-24T17:40:06.653Z,11.90
2022-10-24T17:42:34.456Z,12.45
2022-10-24T17:45:01.625Z,12.52
2022-10-24T17:47:35.773Z,13.85
2022-10-24T17:50:09.569Z,15.32
2022-10-24T17:52:40.175Z,14.52
2022-10-24T17:55:45.748Z,15.95
2022-10-24T17:58:12.912Z,15.90
2022-10-24T18:00:46.592Z,15.57
2022-10-24T18:03:20.671Z,16.95
2022-10-24T18:05:54.535Z,17.35
2022-10-24T18:08:28.603Z,18.55
2022-10-24T18:10:55.836Z,18.98
2022-10-24T18:13:29.621Z,19.48
2022-10-24T18:15:56.828Z,20.45
2022-10-24T18:18:24.000Z,19.33
2022-10-24T18:20:58.664Z,19.95
2022-10-24T18:23:32.556Z,19.23
2022-10-24T18:26:06.602Z,21.42
2022-10-24T18:28:36.586Z,20.33
2022-10-24T18:31:14.871Z,22.65
2022-10-24T18:36:13.329Z,19.52
2022-10-24T18:38:48.202Z,22.48
2022-10-24T18:41:21.695Z,23.98
2022-10-24T18:43:56.733Z,23.38
2022-10-24T18:46:24.490Z,23.38
2022-10-24T18:51:39.062Z,20.95
2022-10-24T18:54:14.779Z,19.92
2022-10-24T18:56:42.750Z,21.27
2022-10-24T18:59:24.640Z,23.90
2022-10-24T19:01:55.851Z,20.67
2022-10-24T19:04:33.722Z,22.45
2022-10-24T19:07:10.558Z,22.40
2022-10-24T19:09:38.146Z,21.50
2022-10-24T19:14:41.476Z,18.15
2022-10-24T19:17:20.588Z,17.17
2022-10-24T19:19:57.403Z,20.00
2022-10-24T19:22:37.591Z,16.77
2022-10-24T19:25:05.105Z,19.52
2022-10-24T19:30:05.552Z,17.33
2022-10-24T19:32:32.983Z,17.15
2022-10-24T19:35:06.690Z,15.30
2022-10-24T19:37:34.204Z,16.17
2022-10-24T19:42:34.573Z,14.18
2022-10-24T19:45:05.280Z,14.57
2022-10-24T19:47:38.706Z,15.32
2022-10-24T19:50:06.211Z,14.30
2022-10-24T19:55:06.595Z,13.65
2022-10-24T19:57:33.892Z,14.45
2022-10-24T20:00:01.042Z,14.75
2022-10-24T20:02:34.679Z,13.68
2022-10-24T20:05:01.780Z,14.43
2022-10-24T20:07:28.883Z,12.38
2022-10-24T20:10:02.726Z,13.18
2022-10-24T20:12:36.604Z,11.40
2022-10-24T20:15:03.926Z,10.95
2022-10-24T20:17:31.073Z,11.68
2022-10-24T20:20:04.810Z,12.02
2022-10-24T20:22:32.163Z,12.60
2022-10-24T20:24:59.343Z,11.10
2022-10-24T20:27:32.710Z,10.02
2022-10-24T20:29:59.816Z,8.80
2022-10-24T20:32:27.011Z,10.20
2022-10-24T20:35:00.807Z,9.80
2022-10-24T20:37:27.900Z,8.77
2022-10-24T20:39:55.181Z,9.77
2022-10-24T20:42:28.643Z,8.32
2022-10-24T20:44:55.741Z,8.55
2022-10-24T20:47:29.765Z,8.25
2022-10-24T20:49:56.864Z,7.90
2022-10-24T20:52:24.058Z,7.95
2022-10-24T20:54:57.664Z,7.90
2022-10-24T20:57:24.758Z,7.45
2022-10-24T20:59:58.672Z,8.13
2022-10-24T21:02:26.065Z,7.25
2022-10-24T21:05:00.730Z,7.10
2022-10-24T21:07:27.844Z,7.28
2022-10-24T21:09:54.929Z,8.00
2022-10-24T21:12:28.748Z,6.80
2022-10-24T21:15:02.624Z,7.43
2022-10-24T21:17:30.143Z,7.68
2022-10-24T21:22:37.821Z,6.53
2022-10-24T21:25:11.665Z,6.38
2022-10-24T21:27:39.115Z,7.00
2022-10-24T21:30:09.791Z,6.03
2022-10-24T21:32:45.801Z,5.72
2022-10-24T21:35:19.578Z,5.93
2022-10-24T21:37:53.711Z,7.10
2022-10-24T21:40:27.598Z,6.60
2022-10-24T21:43:01.879Z,6.60
2022-10-24T21:45:29.000Z,7.32
2022-10-24T21:47:56.427Z,7.32
2022-10-24T21:50:29.751Z,6.97
2022-10-24T21:53:03.601Z,7.13
2022-10-24T21:55:37.770Z,7.15
2022-10-24T21:58:04.912Z,7.63
2022-10-24T22:00:34.624Z,7.28
2022-10-24T22:03:10.837Z,6.93
2022-10-24T22:05:38.042Z,5.78
2022-10-24T22:08:05.216Z,7.53
2022-10-24T22:10:38.715Z,7.18
2022-10-24T22:13:06.051Z,6.68
2022-10-24T22:15:39.785Z,7.38
2022-10-24T22:18:06.909Z,6.07
2022-10-24T22:20:53.710Z,7.07
2022-10-24T22:23:20.829Z,6.00
2022-10-24T22:25:48.118Z,6.18
2022-10-24T22:28:21.704Z,6.32
2022-10-24T22:30:48.878Z,6.35
2022-10-24T22:33:24.692Z,6.38
2022-10-24T22:35:56.671Z,6.40
2022-10-24T22:38:23.945Z,5.80
2022-10-24T22:41:04.680Z,7.07
2022-10-24T22:43:32.036Z,6.72
2022-10-24T22:46:20.740Z,6.15
2022-10-24T22:48:49.761Z,6.40
2022-10-24T22:51:19.985Z,5.97
2022-10-24T22:53:53.686Z,6.32
2022-10-24T22:56:33.139Z,6.05
2022-10-24T22:59:07.897Z,6.03
2022-10-24T23:01:53.817Z,6.07
2022-10-24T23:04:31.864Z,4.80
2022-10-24T23:07:07.670Z,5.15
2022-10-24T23:09:42.138Z,4.95
2022-10-24T23:12:15.044Z,5.00
2022-10-24T23:14:48.953Z,4.90
2022-10-24T23:17:29.823Z,4.38
2022-10-24T23:20:10.740Z,4.20
2022-10-24T23:25:06.739Z,4.30
2022-10-24T23:27:48.083Z,4.13
2022-10-24T23:30:29.636Z,3.38
2022-10-24T23:32:57.017Z,2.75
2022-10-24T23:35:30.671Z,3.33
2022-10-24T23:37:57.978Z,3.40
2022-10-24T23:40:39.659Z,3.30
2022-10-24T23:43:07.147Z,3.53
2022-10-24T23:45:38.361Z,3.55
2022-10-24T23:48:20.810Z,2.55
2022-10-24T23:51:11.394Z,2.60
2022-10-24T23:53:44.832Z,2.80
2022-10-24T23:56:12.788Z,2.75
2022-10-24T23:58:39.930Z,3.42
